Aurora, Minnesota
Current Conditions -  °F | °C
As of 6:31 PM on Friday 24 Oct 2014 (Local Time) from KEVM Reporting Station
Clear Clear  
Wind Chill: 61°   Ceiling: Unl
Heat Index: 61°   Visibility: 10mi
Dew Point: 39°   Wind: 6mph
Humidity: 45%   Direction: 220°SW
Pressure: 29.75"   Gusts: NA
Location:  47.53°N, 92.24°W
Report Text: KEVM 242331Z AUTO 22005KT 10SM CLR 16/04 A2975 RMK AO2
Loading
Personal Weather Stations






























Interactive Weather Map
Tropical Storm Tracking
New forecast layout! Learn more

10-Day Weather Forecast

Advertisements
Track Severe Weather on mobile